sensor_id;sensor_type;location;lat;lon;timestamp;P1;durP1;ratioP1;P2;durP2;ratioP2
32138;SDS011;18644;48.700;9.210;2022-07-29T00:00:31;2.78;;;2.28;;
32138;SDS011;18644;48.700;9.210;2022-07-29T00:02:58;3.22;;;2.00;;
32138;SDS011;18644;48.700;9.210;2022-07-29T00:05:25;3.45;;;2.10;;
32138;SDS011;18644;48.700;9.210;2022-07-29T00:07:51;2.10;;;1.90;;
32138;SDS011;18644;48.700;9.210;2022-07-29T00:10:18;2.53;;;2.20;;
32138;SDS011;18644;48.700;9.210;2022-07-29T00:12:47;2.17;;;1.98;;
32138;SDS011;18644;48.700;9.210;2022-07-29T00:15:14;3.15;;;2.10;;
32138;SDS011;18644;48.700;9.210;2022-07-29T00:17:41;2.92;;;2.30;;
32138;SDS011;18644;48.700;9.210;2022-07-29T00:20:08;2.58;;;2.17;;
32138;SDS011;18644;48.700;9.210;2022-07-29T00:22:36;2.70;;;2.25;;
32138;SDS011;18644;48.700;9.210;2022-07-29T00:25:04;2.28;;;2.05;;
32138;SDS011;18644;48.700;9.210;2022-07-29T00:27:32;2.03;;;1.92;;
32138;SDS011;18644;48.700;9.210;2022-07-29T00:30:02;2.85;;;2.22;;
32138;SDS011;18644;48.700;9.210;2022-07-29T00:32:30;2.80;;;2.10;;
32138;SDS011;18644;48.700;9.210;2022-07-29T00:34:57;3.05;;;2.00;;
32138;SDS011;18644;48.700;9.210;2022-07-29T00:37:41;2.72;;;2.05;;
32138;SDS011;18644;48.700;9.210;2022-07-29T00:40:08;2.05;;;1.80;;
32138;SDS011;18644;48.700;9.210;2022-07-29T00:42:41;2.47;;;1.90;;
32138;SDS011;18644;48.700;9.210;2022-07-29T00:45:10;2.35;;;1.98;;
32138;SDS011;18644;48.700;9.210;2022-07-29T00:47:38;3.20;;;2.22;;
32138;SDS011;18644;48.700;9.210;2022-07-29T00:50:05;2.35;;;2.00;;
32138;SDS011;18644;48.700;9.210;2022-07-29T00:52:35;3.65;;;2.10;;
32138;SDS011;18644;48.700;9.210;2022-07-29T00:55:06;2.17;;;1.80;;
32138;SDS011;18644;48.700;9.210;2022-07-29T00:57:35;3.33;;;2.30;;
32138;SDS011;18644;48.700;9.210;2022-07-29T01:00:03;3.42;;;2.15;;
32138;SDS011;18644;48.700;9.210;2022-07-29T01:02:35;3.27;;;1.70;;
32138;SDS011;18644;48.700;9.210;2022-07-29T01:05:02;2.85;;;1.95;;
32138;SDS011;18644;48.700;9.210;2022-07-29T01:07:31;1.98;;;1.80;;
32138;SDS011;18644;48.700;9.210;2022-07-29T01:10:00;2.58;;;1.80;;
32138;SDS011;18644;48.700;9.210;2022-07-29T01:12:30;3.38;;;1.90;;
32138;SDS011;18644;48.700;9.210;2022-07-29T01:14:58;3.17;;;2.08;;
32138;SDS011;18644;48.700;9.210;2022-07-29T01:17:27;2.63;;;1.92;;
32138;SDS011;18644;48.700;9.210;2022-07-29T01:20:03;2.10;;;1.90;;
32138;SDS011;18644;48.700;9.210;2022-07-29T01:22:43;2.70;;;1.92;;
32138;SDS011;18644;48.700;9.210;2022-07-29T01:25:56;1.77;;;1.63;;
32138;SDS011;18644;48.700;9.210;2022-07-29T01:28:39;2.95;;;2.03;;
32138;SDS011;18644;48.700;9.210;2022-07-29T01:31:16;3.03;;;2.13;;
32138;SDS011;18644;48.700;9.210;2022-07-29T01:33:49;3.55;;;2.15;;
32138;SDS011;18644;48.700;9.210;2022-07-29T01:36:25;1.80;;;1.70;;
32138;SDS011;18644;48.700;9.210;2022-07-29T01:38:58;3.17;;;1.73;;
32138;SDS011;18644;48.700;9.210;2022-07-29T01:41:34;2.53;;;1.85;;
32138;SDS011;18644;48.700;9.210;2022-07-29T01:44:08;2.50;;;1.80;;
32138;SDS011;18644;48.700;9.210;2022-07-29T01:46:41;2.20;;;1.75;;
32138;SDS011;18644;48.700;9.210;2022-07-29T01:49:16;1.58;;;1.48;;
32138;SDS011;18644;48.700;9.210;2022-07-29T01:51:48;2.00;;;1.70;;
32138;SDS011;18644;48.700;9.210;2022-07-29T01:54:20;1.73;;;1.40;;
32138;SDS011;18644;48.700;9.210;2022-07-29T01:56:53;1.42;;;1.33;;
32138;SDS011;18644;48.700;9.210;2022-07-29T01:59:24;1.75;;;1.65;;
32138;SDS011;18644;48.700;9.210;2022-07-29T02:01:53;2.08;;;1.90;;
32138;SDS011;18644;48.700;9.210;2022-07-29T02:04:21;1.50;;;1.40;;
32138;SDS011;18644;48.700;9.210;2022-07-29T02:06:50;2.92;;;1.67;;
32138;SDS011;18644;48.700;9.210;2022-07-29T02:09:21;1.45;;;1.35;;
32138;SDS011;18644;48.700;9.210;2022-07-29T02:11:51;1.90;;;1.27;;
32138;SDS011;18644;48.700;9.210;2022-07-29T02:14:21;3.67;;;1.70;;
32138;SDS011;18644;48.700;9.210;2022-07-29T02:16:52;1.98;;;1.83;;
32138;SDS011;18644;48.700;9.210;2022-07-29T02:19:21;2.17;;;1.48;;
32138;SDS011;18644;48.700;9.210;2022-07-29T02:21:50;2.88;;;2.00;;
32138;SDS011;18644;48.700;9.210;2022-07-29T02:24:19;2.60;;;1.90;;
32138;SDS011;18644;48.700;9.210;2022-07-29T02:26:49;2.20;;;1.60;;
32138;SDS011;18644;48.700;9.210;2022-07-29T02:29:18;2.40;;;1.80;;
32138;SDS011;18644;48.700;9.210;2022-07-29T02:31:50;3.33;;;1.35;;
32138;SDS011;18644;48.700;9.210;2022-07-29T02:34:20;1.70;;;1.60;;
32138;SDS011;18644;48.700;9.210;2022-07-29T02:36:47;2.65;;;1.85;;
32138;SDS011;18644;48.700;9.210;2022-07-29T02:39:16;4.82;;;2.03;;
32138;SDS011;18644;48.700;9.210;2022-07-29T02:41:45;1.63;;;1.52;;
32138;SDS011;18644;48.700;9.210;2022-07-29T02:44:15;2.35;;;1.65;;
32138;SDS011;18644;48.700;9.210;2022-07-29T02:46:53;6.50;;;1.80;;
32138;SDS011;18644;48.700;9.210;2022-07-29T02:49:29;1.42;;;1.33;;
32138;SDS011;18644;48.700;9.210;2022-07-29T02:52:03;2.38;;;2.00;;
32138;SDS011;18644;48.700;9.210;2022-07-29T02:54:37;3.55;;;1.92;;
32138;SDS011;18644;48.700;9.210;2022-07-29T02:57:09;2.33;;;1.90;;
32138;SDS011;18644;48.700;9.210;2022-07-29T03:02:19;2.15;;;1.33;;
32138;SDS011;18644;48.700;9.210;2022-07-29T03:04:47;4.43;;;1.98;;
32138;SDS011;18644;48.700;9.210;2022-07-29T03:07:16;1.63;;;1.52;;
32138;SDS011;18644;48.700;9.210;2022-07-29T03:09:46;2.13;;;1.70;;
32138;SDS011;18644;48.700;9.210;2022-07-29T03:12:13;2.95;;;1.70;;
32138;SDS011;18644;48.700;9.210;2022-07-29T03:14:42;3.60;;;1.88;;
32138;SDS011;18644;48.700;9.210;2022-07-29T03:17:09;2.20;;;1.92;;
32138;SDS011;18644;48.700;9.210;2022-07-29T03:19:38;1.92;;;1.77;;
32138;SDS011;18644;48.700;9.210;2022-07-29T03:22:05;1.80;;;1.70;;
32138;SDS011;18644;48.700;9.210;2022-07-29T03:24:33;1.77;;;1.58;;
32138;SDS011;18644;48.700;9.210;2022-07-29T03:27:02;1.90;;;1.80;;
32138;SDS011;18644;48.700;9.210;2022-07-29T03:29:30;1.77;;;1.50;;
32138;SDS011;18644;48.700;9.210;2022-07-29T03:31:58;2.85;;;2.08;;
32138;SDS011;18644;48.700;9.210;2022-07-29T03:34:24;2.33;;;2.10;;
32138;SDS011;18644;48.700;9.210;2022-07-29T03:36:53;2.50;;;1.70;;
32138;SDS011;18644;48.700;9.210;2022-07-29T03:39:20;1.65;;;1.45;;
32138;SDS011;18644;48.700;9.210;2022-07-29T03:44:21;1.98;;;1.70;;
32138;SDS011;18644;48.700;9.210;2022-07-29T03:46:50;5.53;;;1.92;;
32138;SDS011;18644;48.700;9.210;2022-07-29T03:49:19;2.05;;;1.67;;
32138;SDS011;18644;48.700;9.210;2022-07-29T03:51:47;3.97;;;2.13;;
32138;SDS011;18644;48.700;9.210;2022-07-29T03:54:16;2.20;;;1.95;;
32138;SDS011;18644;48.700;9.210;2022-07-29T03:56:45;3.67;;;2.00;;
32138;SDS011;18644;48.700;9.210;2022-07-29T03:59:15;2.03;;;1.75;;
32138;SDS011;18644;48.700;9.210;2022-07-29T04:01:45;4.28;;;2.20;;
32138;SDS011;18644;48.700;9.210;2022-07-29T04:04:13;3.03;;;1.60;;
32138;SDS011;18644;48.700;9.210;2022-07-29T04:06:41;2.13;;;1.90;;
32138;SDS011;18644;48.700;9.210;2022-07-29T04:09:09;3.47;;;2.05;;
32138;SDS011;18644;48.700;9.210;2022-07-29T04:11:39;3.42;;;1.77;;
32138;SDS011;18644;48.700;9.210;2022-07-29T04:14:07;4.13;;;2.40;;
32138;SDS011;18644;48.700;9.210;2022-07-29T04:16:34;3.72;;;2.75;;
32138;SDS011;18644;48.700;9.210;2022-07-29T04:19:01;6.28;;;2.58;;
32138;SDS011;18644;48.700;9.210;2022-07-29T04:21:28;3.42;;;1.98;;
32138;SDS011;18644;48.700;9.210;2022-07-29T04:23:55;2.72;;;2.13;;
32138;SDS011;18644;48.700;9.210;2022-07-29T04:26:21;2.47;;;2.25;;
32138;SDS011;18644;48.700;9.210;2022-07-29T04:28:50;1.90;;;1.80;;
32138;SDS011;18644;48.700;9.210;2022-07-29T04:31:16;2.00;;;1.80;;
32138;SDS011;18644;48.700;9.210;2022-07-29T04:33:43;2.97;;;2.20;;
32138;SDS011;18644;48.700;9.210;2022-07-29T04:36:10;2.13;;;1.63;;
32138;SDS011;18644;48.700;9.210;2022-07-29T04:38:37;2.78;;;2.15;;
32138;SDS011;18644;48.700;9.210;2022-07-29T04:41:04;1.88;;;1.75;;
32138;SDS011;18644;48.700;9.210;2022-07-29T04:43:33;2.00;;;1.80;;
32138;SDS011;18644;48.700;9.210;2022-07-29T04:46:01;2.33;;;1.98;;
32138;SDS011;18644;48.700;9.210;2022-07-29T04:48:29;2.58;;;1.65;;
32138;SDS011;18644;48.700;9.210;2022-07-29T04:50:56;1.55;;;1.42;;
32138;SDS011;18644;48.700;9.210;2022-07-29T04:53:23;2.40;;;1.98;;
32138;SDS011;18644;48.700;9.210;2022-07-29T04:55:53;2.00;;;1.75;;
32138;SDS011;18644;48.700;9.210;2022-07-29T04:58:19;1.73;;;1.63;;
32138;SDS011;18644;48.700;9.210;2022-07-29T05:00:48;2.67;;;1.70;;
32138;SDS011;18644;48.700;9.210;2022-07-29T05:03:16;1.92;;;1.80;;
32138;SDS011;18644;48.700;9.210;2022-07-29T05:05:43;3.70;;;2.10;;
32138;SDS011;18644;48.700;9.210;2022-07-29T05:08:10;3.40;;;1.65;;
32138;SDS011;18644;48.700;9.210;2022-07-29T05:10:37;2.17;;;1.50;;
32138;SDS011;18644;48.700;9.210;2022-07-29T05:13:04;4.82;;;1.98;;
32138;SDS011;18644;48.700;9.210;2022-07-29T05:15:32;1.73;;;1.50;;
32138;SDS011;18644;48.700;9.210;2022-07-29T05:17:59;1.40;;;1.30;;
32138;SDS011;18644;48.700;9.210;2022-07-29T05:20:28;3.00;;;1.45;;
32138;SDS011;18644;48.700;9.210;2022-07-29T05:22:56;3.63;;;1.35;;
32138;SDS011;18644;48.700;9.210;2022-07-29T05:25:23;1.50;;;1.33;;
32138;SDS011;18644;48.700;9.210;2022-07-29T05:27:52;1.45;;;1.35;;
32138;SDS011;18644;48.700;9.210;2022-07-29T05:30:19;1.60;;;1.50;;
32138;SDS011;18644;48.700;9.210;2022-07-29T05:32:47;1.50;;;1.40;;
32138;SDS011;18644;48.700;9.210;2022-07-29T05:35:14;1.30;;;1.20;;
32138;SDS011;18644;48.700;9.210;2022-07-29T05:37:42;1.73;;;1.17;;
32138;SDS011;18644;48.700;9.210;2022-07-29T05:40:09;1.55;;;1.45;;
32138;SDS011;18644;48.700;9.210;2022-07-29T05:42:36;1.65;;;1.50;;
32138;SDS011;18644;48.700;9.210;2022-07-29T05:45:04;1.30;;;1.20;;
32138;SDS011;18644;48.700;9.210;2022-07-29T05:47:32;1.52;;;1.23;;
32138;SDS011;18644;48.700;9.210;2022-07-29T05:49:58;1.95;;;1.30;;
32138;SDS011;18644;48.700;9.210;2022-07-29T05:52:25;2.08;;;1.40;;
32138;SDS011;18644;48.700;9.210;2022-07-29T05:54:54;1.90;;;1.27;;
32138;SDS011;18644;48.700;9.210;2022-07-29T05:57:22;2.15;;;1.23;;
32138;SDS011;18644;48.700;9.210;2022-07-29T05:59:50;1.38;;;1.27;;
32138;SDS011;18644;48.700;9.210;2022-07-29T06:02:17;1.30;;;1.20;;
32138;SDS011;18644;48.700;9.210;2022-07-29T06:04:45;1.65;;;1.30;;
32138;SDS011;18644;48.700;9.210;2022-07-29T06:07:12;1.65;;;1.30;;
32138;SDS011;18644;48.700;9.210;2022-07-29T06:09:39;1.85;;;1.23;;
32138;SDS011;18644;48.700;9.210;2022-07-29T06:12:07;1.98;;;1.20;;
32138;SDS011;18644;48.700;9.210;2022-07-29T06:14:35;1.38;;;1.17;;
32138;SDS011;18644;48.700;9.210;2022-07-29T06:17:02;1.25;;;1.08;;
32138;SDS011;18644;48.700;9.210;2022-07-29T06:19:30;1.20;;;1.10;;
32138;SDS011;18644;48.700;9.210;2022-07-29T06:21:57;1.20;;;0.98;;
32138;SDS011;18644;48.700;9.210;2022-07-29T06:24:24;3.17;;;1.20;;
32138;SDS011;18644;48.700;9.210;2022-07-29T06:26:51;1.77;;;1.17;;
32138;SDS011;18644;48.700;9.210;2022-07-29T06:29:19;2.13;;;1.02;;
32138;SDS011;18644;48.700;9.210;2022-07-29T06:31:46;1.25;;;1.02;;
32138;SDS011;18644;48.700;9.210;2022-07-29T06:34:13;1.00;;;0.95;;
32138;SDS011;18644;48.700;9.210;2022-07-29T06:36:40;1.98;;;1.27;;
32138;SDS011;18644;48.700;9.210;2022-07-29T06:39:07;0.98;;;0.95;;
32138;SDS011;18644;48.700;9.210;2022-07-29T06:41:35;1.00;;;0.90;;
32138;SDS011;18644;48.700;9.210;2022-07-29T06:44:02;1.48;;;1.20;;
32138;SDS011;18644;48.700;9.210;2022-07-29T06:46:30;1.27;;;1.10;;
32138;SDS011;18644;48.700;9.210;2022-07-29T06:48:57;2.42;;;1.15;;
32138;SDS011;18644;48.700;9.210;2022-07-29T06:51:26;4.30;;;1.17;;
32138;SDS011;18644;48.700;9.210;2022-07-29T06:53:53;1.75;;;1.30;;
32138;SDS011;18644;48.700;9.210;2022-07-29T06:56:22;2.20;;;1.38;;
32138;SDS011;18644;48.700;9.210;2022-07-29T06:58:49;1.40;;;1.30;;
32138;SDS011;18644;48.700;9.210;2022-07-29T07:01:16;1.55;;;1.45;;
32138;SDS011;18644;48.700;9.210;2022-07-29T07:03:44;1.30;;;1.20;;
32138;SDS011;18644;48.700;9.210;2022-07-29T07:06:11;1.55;;;1.23;;
32138;SDS011;18644;48.700;9.210;2022-07-29T07:08:38;1.67;;;1.20;;
32138;SDS011;18644;48.700;9.210;2022-07-29T07:11:04;1.60;;;1.30;;
32138;SDS011;18644;48.700;9.210;2022-07-29T07:13:32;1.60;;;1.23;;
32138;SDS011;18644;48.700;9.210;2022-07-29T07:15:59;1.60;;;1.40;;
32138;SDS011;18644;48.700;9.210;2022-07-29T07:18:27;1.42;;;1.23;;
32138;SDS011;18644;48.700;9.210;2022-07-29T07:20:55;1.30;;;1.20;;
32138;SDS011;18644;48.700;9.210;2022-07-29T07:23:22;1.65;;;1.55;;
32138;SDS011;18644;48.700;9.210;2022-07-29T07:25:49;3.05;;;1.77;;
32138;SDS011;18644;48.700;9.210;2022-07-29T07:28:17;1.70;;;1.50;;
32138;SDS011;18644;48.700;9.210;2022-07-29T07:30:45;3.17;;;1.77;;
32138;SDS011;18644;48.700;9.210;2022-07-29T07:33:12;2.30;;;1.70;;
32138;SDS011;18644;48.700;9.210;2022-07-29T07:35:39;2.10;;;1.40;;
32138;SDS011;18644;48.700;9.210;2022-07-29T07:38:08;3.10;;;1.77;;
32138;SDS011;18644;48.700;9.210;2022-07-29T07:40:35;1.60;;;1.50;;
32138;SDS011;18644;48.700;9.210;2022-07-29T07:43:02;1.90;;;1.60;;
32138;SDS011;18644;48.700;9.210;2022-07-29T07:45:29;1.73;;;1.63;;
32138;SDS011;18644;48.700;9.210;2022-07-29T07:47:57;2.03;;;1.83;;
32138;SDS011;18644;48.700;9.210;2022-07-29T07:50:24;2.05;;;1.73;;
32138;SDS011;18644;48.700;9.210;2022-07-29T07:52:52;1.63;;;1.30;;
32138;SDS011;18644;48.700;9.210;2022-07-29T07:55:24;1.77;;;1.42;;
32138;SDS011;18644;48.700;9.210;2022-07-29T07:57:51;1.50;;;1.40;;
32138;SDS011;18644;48.700;9.210;2022-07-29T08:00:18;2.25;;;1.58;;
32138;SDS011;18644;48.700;9.210;2022-07-29T08:02:45;6.90;;;2.35;;
32138;SDS011;18644;48.700;9.210;2022-07-29T08:05:12;6.35;;;2.72;;
32138;SDS011;18644;48.700;9.210;2022-07-29T08:07:42;3.60;;;1.60;;
32138;SDS011;18644;48.700;9.210;2022-07-29T08:10:10;2.00;;;1.80;;
32138;SDS011;18644;48.700;9.210;2022-07-29T08:12:39;1.90;;;1.80;;
32138;SDS011;18644;48.700;9.210;2022-07-29T08:15:07;2.90;;;1.80;;
32138;SDS011;18644;48.700;9.210;2022-07-29T08:17:35;2.55;;;1.98;;
32138;SDS011;18644;48.700;9.210;2022-07-29T08:20:02;1.48;;;1.38;;
32138;SDS011;18644;48.700;9.210;2022-07-29T08:22:30;2.33;;;1.52;;
32138;SDS011;18644;48.700;9.210;2022-07-29T08:24:57;3.05;;;1.85;;
32138;SDS011;18644;48.700;9.210;2022-07-29T08:27:24;1.70;;;1.60;;
32138;SDS011;18644;48.700;9.210;2022-07-29T08:29:54;5.25;;;1.70;;
32138;SDS011;18644;48.700;9.210;2022-07-29T08:32:22;3.70;;;1.95;;
32138;SDS011;18644;48.700;9.210;2022-07-29T08:34:49;1.92;;;1.63;;
32138;SDS011;18644;48.700;9.210;2022-07-29T08:37:16;1.60;;;1.50;;
32138;SDS011;18644;48.700;9.210;2022-07-29T08:39:42;4.95;;;2.13;;
32138;SDS011;18644;48.700;9.210;2022-07-29T08:42:10;1.80;;;1.70;;
32138;SDS011;18644;48.700;9.210;2022-07-29T08:44:38;4.28;;;1.63;;
32138;SDS011;18644;48.700;9.210;2022-07-29T08:47:06;3.08;;;1.85;;
32138;SDS011;18644;48.700;9.210;2022-07-29T08:49:33;2.13;;;1.92;;
32138;SDS011;18644;48.700;9.210;2022-07-29T08:52:02;2.03;;;1.75;;
32138;SDS011;18644;48.700;9.210;2022-07-29T08:54:29;2.13;;;1.85;;
32138;SDS011;18644;48.700;9.210;2022-07-29T08:56:56;4.38;;;1.80;;
32138;SDS011;18644;48.700;9.210;2022-07-29T08:59:24;2.38;;;1.92;;
32138;SDS011;18644;48.700;9.210;2022-07-29T09:01:53;1.90;;;1.77;;
32138;SDS011;18644;48.700;9.210;2022-07-29T09:04:22;2.17;;;1.98;;
32138;SDS011;18644;48.700;9.210;2022-07-29T09:06:53;2.95;;;2.22;;
32138;SDS011;18644;48.700;9.210;2022-07-29T09:09:22;3.47;;;2.10;;
32138;SDS011;18644;48.700;9.210;2022-07-29T09:11:49;4.68;;;2.42;;
32138;SDS011;18644;48.700;9.210;2022-07-29T09:14:18;2.13;;;1.95;;
32138;SDS011;18644;48.700;9.210;2022-07-29T09:16:46;2.40;;;2.00;;
32138;SDS011;18644;48.700;9.210;2022-07-29T09:19:27;2.67;;;2.20;;
32138;SDS011;18644;48.700;9.210;2022-07-29T09:21:56;2.22;;;1.70;;
32138;SDS011;18644;48.700;9.210;2022-07-29T09:24:24;2.42;;;2.10;;
32138;SDS011;18644;48.700;9.210;2022-07-29T09:27:19;3.63;;;2.17;;
32138;SDS011;18644;48.700;9.210;2022-07-29T09:29:54;4.18;;;1.65;;
32138;SDS011;18644;48.700;9.210;2022-07-29T09:32:23;2.53;;;1.73;;
32138;SDS011;18644;48.700;9.210;2022-07-29T09:34:53;5.05;;;2.42;;
32138;SDS011;18644;48.700;9.210;2022-07-29T09:37:41;5.30;;;2.30;;
32138;SDS011;18644;48.700;9.210;2022-07-29T09:40:13;9.77;;;2.15;;
32138;SDS011;18644;48.700;9.210;2022-07-29T09:42:42;2.63;;;2.03;;
32138;SDS011;18644;48.700;9.210;2022-07-29T09:45:10;5.03;;;1.95;;
32138;SDS011;18644;48.700;9.210;2022-07-29T09:47:41;2.08;;;1.75;;
32138;SDS011;18644;48.700;9.210;2022-07-29T09:50:13;2.53;;;1.60;;
32138;SDS011;18644;48.700;9.210;2022-07-29T09:52:47;2.88;;;1.80;;
32138;SDS011;18644;48.700;9.210;2022-07-29T09:55:15;3.38;;;2.00;;
32138;SDS011;18644;48.700;9.210;2022-07-29T09:57:43;2.95;;;2.05;;
32138;SDS011;18644;48.700;9.210;2022-07-29T10:00:12;3.53;;;1.73;;
32138;SDS011;18644;48.700;9.210;2022-07-29T10:02:41;1.80;;;1.63;;
32138;SDS011;18644;48.700;9.210;2022-07-29T10:05:19;2.03;;;1.83;;
32138;SDS011;18644;48.700;9.210;2022-07-29T10:07:48;2.63;;;2.20;;
32138;SDS011;18644;48.700;9.210;2022-07-29T10:10:21;2.03;;;1.83;;
32138;SDS011;18644;48.700;9.210;2022-07-29T10:12:50;8.38;;;2.10;;
32138;SDS011;18644;48.700;9.210;2022-07-29T10:15:21;2.15;;;1.95;;
32138;SDS011;18644;48.700;9.210;2022-07-29T10:17:50;2.58;;;2.17;;
32138;SDS011;18644;48.700;9.210;2022-07-29T10:20:19;1.90;;;1.73;;
32138;SDS011;18644;48.700;9.210;2022-07-29T10:22:47;3.72;;;1.95;;
32138;SDS011;18644;48.700;9.210;2022-07-29T10:25:15;2.63;;;2.10;;
32138;SDS011;18644;48.700;9.210;2022-07-29T10:27:43;2.25;;;2.05;;
32138;SDS011;18644;48.700;9.210;2022-07-29T10:30:13;2.10;;;1.73;;
32138;SDS011;18644;48.700;9.210;2022-07-29T10:32:47;3.15;;;2.28;;
32138;SDS011;18644;48.700;9.210;2022-07-29T10:35:51;2.03;;;1.65;;
32138;SDS011;18644;48.700;9.210;2022-07-29T10:38:37;2.60;;;1.88;;
32138;SDS011;18644;48.700;9.210;2022-07-29T10:41:13;2.53;;;1.70;;
32138;SDS011;18644;48.700;9.210;2022-07-29T10:44:00;2.13;;;1.73;;
32138;SDS011;18644;48.700;9.210;2022-07-29T10:46:34;2.55;;;1.90;;
32138;SDS011;18644;48.700;9.210;2022-07-29T10:49:08;1.92;;;1.75;;
32138;SDS011;18644;48.700;9.210;2022-07-29T10:51:53;2.60;;;1.80;;
32138;SDS011;18644;48.700;9.210;2022-07-29T10:57:16;3.10;;;1.83;;
32138;SDS011;18644;48.700;9.210;2022-07-29T11:02:55;2.17;;;1.98;;
32138;SDS011;18644;48.700;9.210;2022-07-29T11:05:23;2.70;;;2.00;;
32138;SDS011;18644;48.700;9.210;2022-07-29T11:10:46;3.03;;;1.88;;
32138;SDS011;18644;48.700;9.210;2022-07-29T11:16:12;5.00;;;2.08;;
32138;SDS011;18644;48.700;9.210;2022-07-29T11:21:45;1.58;;;1.45;;
32138;SDS011;18644;48.700;9.210;2022-07-29T11:24:16;3.92;;;1.60;;
32138;SDS011;18644;48.700;9.210;2022-07-29T11:29:48;1.50;;;1.33;;
32138;SDS011;18644;48.700;9.210;2022-07-29T11:32:21;1.38;;;1.27;;
32138;SDS011;18644;48.700;9.210;2022-07-29T11:37:40;1.70;;;1.10;;
32138;SDS011;18644;48.700;9.210;2022-07-29T11:40:09;2.05;;;1.13;;
32138;SDS011;18644;48.700;9.210;2022-07-29T11:42:45;1.08;;;1.00;;
32138;SDS011;18644;48.700;9.210;2022-07-29T11:45:16;2.17;;;1.00;;
32138;SDS011;18644;48.700;9.210;2022-07-29T11:47:53;2.00;;;1.05;;
32138;SDS011;18644;48.700;9.210;2022-07-29T11:50:28;1.50;;;1.15;;
32138;SDS011;18644;48.700;9.210;2022-07-29T11:53:01;2.33;;;0.85;;
32138;SDS011;18644;48.700;9.210;2022-07-29T11:55:30;1.40;;;1.10;;
32138;SDS011;18644;48.700;9.210;2022-07-29T11:58:00;1.52;;;1.17;;
32138;SDS011;18644;48.700;9.210;2022-07-29T12:00:28;1.77;;;1.10;;
32138;SDS011;18644;48.700;9.210;2022-07-29T12:03:00;1.30;;;1.20;;
32138;SDS011;18644;48.700;9.210;2022-07-29T12:05:30;5.18;;;1.30;;
32138;SDS011;18644;48.700;9.210;2022-07-29T12:08:10;3.67;;;1.55;;
32138;SDS011;18644;48.700;9.210;2022-07-29T12:10:41;2.83;;;1.40;;
32138;SDS011;18644;48.700;9.210;2022-07-29T12:13:10;3.55;;;2.38;;
32138;SDS011;18644;48.700;9.210;2022-07-29T12:15:38;2.65;;;2.22;;
32138;SDS011;18644;48.700;9.210;2022-07-29T12:18:09;3.25;;;2.08;;
32138;SDS011;18644;48.700;9.210;2022-07-29T12:20:38;3.33;;;2.00;;
32138;SDS011;18644;48.700;9.210;2022-07-29T12:23:05;3.90;;;2.97;;
32138;SDS011;18644;48.700;9.210;2022-07-29T12:25:34;3.30;;;2.17;;
32138;SDS011;18644;48.700;9.210;2022-07-29T12:28:06;3.55;;;1.85;;
32138;SDS011;18644;48.700;9.210;2022-07-29T12:30:36;2.10;;;1.40;;
32138;SDS011;18644;48.700;9.210;2022-07-29T12:33:19;2.03;;;1.30;;
32138;SDS011;18644;48.700;9.210;2022-07-29T12:35:49;4.32;;;2.25;;
32138;SDS011;18644;48.700;9.210;2022-07-29T12:38:18;3.67;;;2.28;;
32138;SDS011;18644;48.700;9.210;2022-07-29T12:40:46;4.75;;;2.10;;
32138;SDS011;18644;48.700;9.210;2022-07-29T12:43:17;5.57;;;1.98;;
32138;SDS011;18644;48.700;9.210;2022-07-29T12:45:47;2.55;;;1.67;;
32138;SDS011;18644;48.700;9.210;2022-07-29T12:48:16;4.93;;;1.90;;
32138;SDS011;18644;48.700;9.210;2022-07-29T12:50:53;3.17;;;1.67;;
32138;SDS011;18644;48.700;9.210;2022-07-29T12:53:21;2.65;;;1.65;;
32138;SDS011;18644;48.700;9.210;2022-07-29T12:55:50;6.03;;;1.75;;
32138;SDS011;18644;48.700;9.210;2022-07-29T12:58:29;2.22;;;1.73;;
32138;SDS011;18644;48.700;9.210;2022-07-29T13:01:01;2.10;;;1.63;;
32138;SDS011;18644;48.700;9.210;2022-07-29T13:03:45;6.20;;;3.00;;
32138;SDS011;18644;48.700;9.210;2022-07-29T13:06:27;2.97;;;2.53;;
32138;SDS011;18644;48.700;9.210;2022-07-29T13:09:02;2.13;;;1.92;;
32138;SDS011;18644;48.700;9.210;2022-07-29T13:11:36;2.95;;;2.08;;
32138;SDS011;18644;48.700;9.210;2022-07-29T13:14:07;4.93;;;2.03;;
32138;SDS011;18644;48.700;9.210;2022-07-29T13:16:37;3.53;;;2.30;;
32138;SDS011;18644;48.700;9.210;2022-07-29T13:19:35;7.05;;;2.10;;
32138;SDS011;18644;48.700;9.210;2022-07-29T13:22:05;4.78;;;2.38;;
32138;SDS011;18644;48.700;9.210;2022-07-29T13:24:32;2.45;;;2.25;;
32138;SDS011;18644;48.700;9.210;2022-07-29T13:26:59;3.58;;;2.28;;
32138;SDS011;18644;48.700;9.210;2022-07-29T13:29:27;4.47;;;2.13;;
32138;SDS011;18644;48.700;9.210;2022-07-29T13:31:54;5.13;;;2.63;;
32138;SDS011;18644;48.700;9.210;2022-07-29T13:34:22;2.00;;;1.85;;
32138;SDS011;18644;48.700;9.210;2022-07-29T13:36:49;2.17;;;1.98;;
32138;SDS011;18644;48.700;9.210;2022-07-29T13:39:16;3.00;;;2.47;;
32138;SDS011;18644;48.700;9.210;2022-07-29T13:41:43;3.65;;;2.50;;
32138;SDS011;18644;48.700;9.210;2022-07-29T13:44:09;5.63;;;2.70;;
32138;SDS011;18644;48.700;9.210;2022-07-29T13:46:37;2.65;;;2.15;;
32138;SDS011;18644;48.700;9.210;2022-07-29T13:49:05;2.90;;;2.28;;
32138;SDS011;18644;48.700;9.210;2022-07-29T13:51:31;3.20;;;2.38;;
32138;SDS011;18644;48.700;9.210;2022-07-29T13:53:58;2.65;;;1.90;;
32138;SDS011;18644;48.700;9.210;2022-07-29T13:56:25;2.40;;;2.17;;
32138;SDS011;18644;48.700;9.210;2022-07-29T13:58:52;2.80;;;2.20;;
32138;SDS011;18644;48.700;9.210;2022-07-29T14:01:19;3.67;;;2.47;;
32138;SDS011;18644;48.700;9.210;2022-07-29T14:03:47;6.80;;;2.42;;
32138;SDS011;18644;48.700;9.210;2022-07-29T14:06:14;5.05;;;2.80;;
32138;SDS011;18644;48.700;9.210;2022-07-29T14:08:41;3.33;;;2.35;;
32138;SDS011;18644;48.700;9.210;2022-07-29T14:11:08;3.78;;;2.60;;
32138;SDS011;18644;48.700;9.210;2022-07-29T14:13:35;6.07;;;2.92;;
32138;SDS011;18644;48.700;9.210;2022-07-29T14:16:02;4.40;;;2.63;;
32138;SDS011;18644;48.700;9.210;2022-07-29T14:18:30;8.25;;;2.92;;
32138;SDS011;18644;48.700;9.210;2022-07-29T14:20:58;4.50;;;2.80;;
32138;SDS011;18644;48.700;9.210;2022-07-29T14:23:25;2.92;;;2.70;;
32138;SDS011;18644;48.700;9.210;2022-07-29T14:25:52;3.17;;;2.88;;
32138;SDS011;18644;48.700;9.210;2022-07-29T14:28:18;2.60;;;2.40;;
32138;SDS011;18644;48.700;9.210;2022-07-29T14:30:45;3.38;;;2.55;;
32138;SDS011;18644;48.700;9.210;2022-07-29T14:33:12;3.53;;;3.03;;
32138;SDS011;18644;48.700;9.210;2022-07-29T14:35:39;4.45;;;3.13;;
32138;SDS011;18644;48.700;9.210;2022-07-29T14:38:08;5.20;;;3.03;;
32138;SDS011;18644;48.700;9.210;2022-07-29T14:40:34;3.15;;;2.83;;
32138;SDS011;18644;48.700;9.210;2022-07-29T14:43:02;3.08;;;2.67;;
32138;SDS011;18644;48.700;9.210;2022-07-29T14:45:29;3.15;;;2.63;;
32138;SDS011;18644;48.700;9.210;2022-07-29T14:47:56;3.15;;;2.63;;
32138;SDS011;18644;48.700;9.210;2022-07-29T14:50:24;4.57;;;2.55;;
32138;SDS011;18644;48.700;9.210;2022-07-29T14:52:52;2.88;;;2.60;;
32138;SDS011;18644;48.700;9.210;2022-07-29T14:55:20;4.53;;;2.80;;
32138;SDS011;18644;48.700;9.210;2022-07-29T14:57:47;2.63;;;2.42;;
32138;SDS011;18644;48.700;9.210;2022-07-29T15:00:15;2.67;;;2.15;;
32138;SDS011;18644;48.700;9.210;2022-07-29T15:02:42;2.92;;;2.42;;
32138;SDS011;18644;48.700;9.210;2022-07-29T15:05:10;4.05;;;2.25;;
32138;SDS011;18644;48.700;9.210;2022-07-29T15:07:37;2.92;;;1.98;;
32138;SDS011;18644;48.700;9.210;2022-07-29T15:10:04;5.10;;;2.45;;
32138;SDS011;18644;48.700;9.210;2022-07-29T15:12:33;2.15;;;1.90;;
32138;SDS011;18644;48.700;9.210;2022-07-29T15:15:00;2.90;;;1.90;;
32138;SDS011;18644;48.700;9.210;2022-07-29T15:17:27;3.17;;;1.98;;
32138;SDS011;18644;48.700;9.210;2022-07-29T15:19:54;3.55;;;2.03;;
32138;SDS011;18644;48.700;9.210;2022-07-29T15:22:21;2.17;;;1.98;;
32138;SDS011;18644;48.700;9.210;2022-07-29T15:24:48;3.53;;;1.95;;
32138;SDS011;18644;48.700;9.210;2022-07-29T15:27:15;4.68;;;2.63;;